Terminal Aerodrome Forecast
Issued by NWS

Home | Current Version | Previous Version | Text Only | Print | Product List | Glossary On
Versions: 1 2 3 4 5 6 7 8 9 10 11 12 13 14
000
FTUS41 KBTV 041729
TAFMPV
TAF
KMPV 041729Z 0418/0518 21014G20KT P6SM BKN080
     FM050100 21010KT P6SM OVC060
     FM050500 24010KT 6SM -RA OVC035
     FM050900 31008KT P6SM SCT025 BKN035
     FM051400 32010G17KT P6SM SCT040=

USA.gov is the U.S. government's official web portal to all federal, state and local government web resources and services.